createdAt,value
2023-02-09T00:00:28.681Z,82.39
2023-02-09T00:02:30.309Z,82.48
2023-02-09T00:04:34.691Z,82.25
2023-02-09T00:06:36.190Z,82.22
2023-02-09T00:08:37.849Z,82.16
2023-02-09T00:10:39.534Z,82.22
2023-02-09T00:12:59.280Z,82.33
2023-02-09T00:15:00.726Z,82.28
2023-02-09T00:17:02.951Z,82.29
2023-02-09T00:19:04.672Z,82.10
2023-02-09T00:21:11.796Z,82.45
2023-02-09T00:23:13.310Z,82.62
2023-02-09T00:25:14.764Z,82.38
2023-02-09T00:27:16.250Z,82.54
2023-02-09T00:29:22.355Z,82.43
2023-02-09T00:31:24.003Z,82.77
2023-02-09T00:33:25.776Z,82.82
2023-02-09T00:35:27.327Z,82.48
2023-02-09T00:37:28.863Z,82.51
2023-02-09T00:39:30.686Z,82.50
2023-02-09T00:41:51.302Z,82.54
2023-02-09T00:43:52.785Z,82.95
2023-02-09T00:45:54.293Z,82.84
2023-02-09T00:47:56.300Z,82.44
2023-02-09T00:49:57.766Z,82.64
2023-02-09T00:51:59.355Z,83.03
2023-02-09T00:54:00.856Z,82.71
2023-02-09T00:56:02.291Z,83.04
2023-02-09T00:58:03.933Z,82.66
2023-02-09T01:00:07.052Z,82.86
2023-02-09T01:02:08.548Z,83.15
2023-02-09T01:04:10.046Z,82.74
2023-02-09T01:06:11.581Z,82.84
2023-02-09T01:08:13.048Z,83.37
2023-02-09T01:10:14.588Z,83.27
2023-02-09T01:12:16.239Z,82.85
2023-02-09T01:14:18.492Z,83.19
2023-02-09T01:16:19.979Z,82.56
2023-02-09T01:18:21.500Z,83.17
2023-02-09T01:20:22.985Z,83.33
2023-02-09T01:22:24.547Z,83.42
2023-02-09T01:24:26.148Z,83.59
2023-02-09T01:26:27.927Z,83.27
2023-02-09T01:28:29.537Z,83.42
2023-02-09T01:30:31.145Z,83.35
2023-02-09T01:32:32.646Z,83.19
2023-02-09T01:34:34.204Z,83.13
2023-02-09T01:36:35.950Z,82.83
2023-02-09T01:38:37.473Z,83.12
2023-02-09T01:40:38.940Z,83.48
2023-02-09T01:42:40.398Z,83.16
2023-02-09T01:44:41.802Z,83.28
2023-02-09T01:46:44.232Z,83.20
2023-02-09T01:48:47.527Z,83.18
2023-02-09T01:50:51.768Z,83.54
2023-02-09T01:52:53.788Z,83.08
2023-02-09T01:55:01.066Z,83.29
2023-02-09T01:57:09.008Z,83.48
2023-02-09T01:59:10.934Z,82.97
2023-02-09T02:01:13.173Z,83.38
2023-02-09T02:03:18.623Z,83.86
2023-02-09T02:05:22.154Z,83.50
2023-02-09T02:07:38.546Z,83.75
2023-02-09T02:09:40.673Z,83.63
2023-02-09T02:11:45.936Z,83.71
2023-02-09T02:13:47.578Z,83.07
2023-02-09T02:16:05.156Z,83.09
2023-02-09T02:18:31.520Z,83.00
2023-02-09T02:20:51.756Z,83.43
2023-02-09T02:23:18.289Z,82.99
2023-02-09T02:25:28.731Z,83.47
2023-02-09T02:27:38.274Z,83.27
2023-02-09T02:30:05.216Z,82.85
2023-02-09T02:32:18.539Z,83.19
2023-02-09T02:34:33.420Z,83.35
2023-02-09T02:36:53.230Z,83.18
2023-02-09T02:39:11.367Z,83.32
2023-02-09T02:41:21.718Z,83.40
2023-02-09T02:43:54.375Z,82.93
2023-02-09T02:46:00.911Z,83.52
2023-02-09T02:48:11.574Z,83.61
2023-02-09T02:50:16.901Z,83.09
2023-02-09T02:52:18.600Z,83.37
2023-02-09T02:54:28.312Z,83.71
2023-02-09T02:56:35.151Z,83.60
2023-02-09T02:58:40.199Z,83.26
2023-02-09T03:00:47.340Z,83.65
2023-02-09T03:02:53.498Z,82.93
2023-02-09T03:04:58.933Z,82.78
2023-02-09T03:07:00.474Z,83.30
2023-02-09T03:09:01.934Z,83.50
2023-02-09T03:11:03.500Z,82.92
2023-02-09T03:13:17.299Z,82.85
2023-02-09T03:15:34.764Z,83.50
2023-02-09T03:17:45.446Z,83.10
2023-02-09T03:19:53.129Z,83.08
2023-02-09T03:21:54.592Z,82.49
2023-02-09T03:24:42.276Z,83.38
2023-02-09T03:26:50.900Z,83.46
2023-02-09T03:28:56.460Z,83.63
2023-02-09T03:30:58.772Z,83.15
2023-02-09T03:33:02.307Z,83.71
2023-02-09T03:35:04.952Z,83.57
2023-02-09T03:37:06.413Z,82.84
2023-02-09T03:39:07.913Z,83.07
2023-02-09T03:41:09.744Z,82.94
2023-02-09T03:43:14.106Z,83.69
2023-02-09T03:45:15.576Z,83.45
2023-02-09T03:47:17.073Z,83.57
2023-02-09T03:49:18.580Z,83.08
2023-02-09T03:51:20.088Z,83.26
2023-02-09T03:53:21.532Z,83.21
2023-02-09T03:55:23.006Z,83.17
2023-02-09T03:57:24.684Z,82.91
2023-02-09T03:59:26.899Z,83.54
2023-02-09T04:01:28.376Z,83.34
2023-02-09T04:03:29.972Z,83.14
2023-02-09T04:05:31.421Z,82.75
2023-02-09T04:07:32.973Z,83.33
2023-02-09T04:09:34.893Z,83.07
2023-02-09T04:11:36.483Z,82.92
2023-02-09T04:13:37.941Z,82.71
2023-02-09T04:15:39.847Z,82.74
2023-02-09T04:17:41.317Z,82.33
2023-02-09T04:19:42.842Z,82.30
2023-02-09T04:21:44.334Z,82.37
2023-02-09T04:23:46.098Z,82.87
2023-02-09T04:25:47.603Z,82.81
2023-02-09T04:27:49.091Z,82.51
2023-02-09T04:29:51.656Z,82.99
2023-02-09T04:31:53.177Z,82.16
2023-02-09T04:33:54.679Z,82.93
2023-02-09T04:35:56.161Z,82.13
2023-02-09T04:37:57.596Z,81.81
2023-02-09T04:39:59.082Z,81.91
2023-02-09T04:42:00.567Z,81.92
2023-02-09T04:44:02.061Z,82.21
2023-02-09T04:46:03.718Z,81.84
2023-02-09T04:48:06.064Z,81.96
2023-02-09T04:50:07.835Z,81.40
2023-02-09T04:52:09.326Z,81.51
2023-02-09T04:54:10.960Z,82.17
2023-02-09T04:56:15.322Z,82.27
2023-02-09T04:58:36.944Z,82.54
2023-02-09T05:00:38.417Z,82.63
2023-02-09T05:02:39.926Z,82.34
2023-02-09T05:04:41.374Z,82.18
2023-02-09T05:06:42.848Z,82.33
2023-02-09T05:08:44.937Z,82.34
2023-02-09T05:10:46.648Z,82.46
2023-02-09T05:12:50.195Z,82.65
2023-02-09T05:14:51.679Z,81.93
2023-02-09T05:16:53.190Z,82.36
2023-02-09T05:18:55.412Z,82.90
2023-02-09T05:20:56.872Z,82.74
2023-02-09T05:22:58.371Z,82.23
2023-02-09T05:25:00.077Z,82.42
2023-02-09T05:27:01.583Z,82.17
2023-02-09T05:29:04.128Z,82.41
2023-02-09T05:31:05.825Z,83.42
2023-02-09T05:33:07.358Z,82.67
2023-02-09T05:35:08.831Z,82.96
2023-02-09T05:37:10.489Z,82.93
2023-02-09T05:39:11.982Z,82.20
2023-02-09T05:41:32.643Z,81.63
2023-02-09T05:43:35.012Z,80.20
2023-02-09T05:45:36.649Z,79.51
2023-02-09T05:47:38.140Z,79.18
2023-02-09T05:49:39.683Z,78.69
2023-02-09T05:51:41.151Z,78.39
2023-02-09T05:53:42.605Z,77.81
2023-02-09T05:55:44.266Z,78.05
2023-02-09T05:57:45.773Z,77.67
2023-02-09T05:59:47.221Z,78.18
2023-02-09T06:01:48.929Z,78.08
2023-02-09T06:03:50.431Z,77.87
2023-02-09T06:05:51.958Z,77.96
2023-02-09T06:07:53.493Z,78.11
2023-02-09T06:09:55.065Z,77.93
2023-02-09T06:11:56.706Z,77.74
2023-02-09T06:13:58.176Z,78.17
2023-02-09T06:15:59.639Z,77.57
2023-02-09T06:18:01.141Z,77.40
2023-02-09T06:20:03.210Z,77.96
2023-02-09T06:22:05.890Z,77.73
2023-02-09T06:24:07.546Z,77.94
2023-02-09T06:26:10.845Z,77.83
2023-02-09T06:30:15.005Z,76.92
2023-02-09T06:32:16.525Z,77.52
2023-02-09T06:34:18.056Z,77.15
2023-02-09T06:36:19.538Z,76.68
2023-02-09T06:38:21.054Z,77.29
2023-02-09T06:40:22.495Z,77.01
2023-02-09T06:42:24.003Z,76.49
2023-02-09T06:44:25.556Z,76.69
2023-02-09T06:46:28.479Z,76.54
2023-02-09T06:48:30.002Z,76.50
2023-02-09T06:50:31.889Z,76.61
2023-02-09T06:52:33.425Z,76.56
2023-02-09T06:54:34.882Z,76.25
2023-02-09T06:56:36.333Z,75.78
2023-02-09T06:58:38.686Z,76.18
2023-02-09T07:00:40.196Z,76.00
2023-02-09T07:02:45.474Z,76.24
2023-02-09T07:04:47.224Z,76.41
2023-02-09T07:06:48.678Z,76.49
2023-02-09T07:08:50.736Z,76.28
2023-02-09T07:10:52.217Z,76.58
2023-02-09T07:12:56.533Z,77.05
2023-02-09T07:14:57.998Z,76.87
2023-02-09T07:16:59.515Z,76.70
2023-02-09T07:19:01.144Z,76.61
2023-02-09T07:21:12.153Z,76.50
2023-02-09T07:23:13.613Z,76.44
2023-02-09T07:25:15.156Z,76.32
2023-02-09T07:27:16.684Z,76.39
2023-02-09T07:29:18.147Z,76.66
2023-02-09T07:31:19.823Z,76.63
2023-02-09T07:33:22.316Z,76.60
2023-02-09T07:35:23.745Z,76.38
2023-02-09T07:37:25.168Z,76.23
2023-02-09T07:39:26.873Z,75.88
2023-02-09T07:41:28.660Z,75.60
2023-02-09T07:43:30.484Z,75.32
2023-02-09T07:45:32.779Z,74.75
2023-02-09T07:47:34.876Z,74.42
2023-02-09T07:49:36.335Z,74.43
2023-02-09T07:51:38.460Z,74.17
2023-02-09T07:53:39.924Z,74.01
2023-02-09T07:55:41.392Z,73.67
2023-02-09T07:57:43.542Z,74.02
2023-02-09T07:59:45.026Z,73.89
2023-02-09T08:01:46.621Z,73.32
2023-02-09T08:03:50.052Z,72.86
2023-02-09T08:06:01.755Z,72.84
2023-02-09T08:08:03.317Z,72.65
2023-02-09T08:10:05.093Z,72.38
2023-02-09T08:12:08.213Z,72.22
2023-02-09T08:14:14.521Z,71.96
2023-02-09T08:16:19.825Z,72.34
2023-02-09T08:18:25.308Z,71.59
2023-02-09T08:20:29.993Z,71.96
2023-02-09T08:22:35.052Z,71.84
2023-02-09T08:24:36.810Z,71.33
2023-02-09T08:26:39.479Z,71.21
2023-02-09T08:28:44.979Z,71.03
2023-02-09T08:30:48.984Z,71.25
2023-02-09T08:32:50.454Z,70.68
2023-02-09T08:34:52.139Z,70.72
2023-02-09T08:36:53.649Z,70.42
2023-02-09T08:38:55.141Z,70.35
2023-02-09T08:40:56.614Z,69.68
2023-02-09T08:42:58.516Z,69.74
2023-02-09T08:45:00.014Z,69.89
2023-02-09T08:47:01.639Z,69.72
2023-02-09T08:49:03.328Z,69.05
2023-02-09T08:51:06.468Z,68.97
2023-02-09T08:53:07.939Z,68.66
2023-02-09T08:55:09.479Z,68.71
2023-02-09T08:57:10.930Z,68.79
2023-02-09T08:59:12.645Z,68.53
2023-02-09T09:01:14.223Z,67.89
2023-02-09T09:03:15.782Z,67.54
2023-02-09T09:05:17.439Z,67.49
2023-02-09T09:07:18.933Z,67.17
2023-02-09T09:09:20.592Z,67.24
2023-02-09T09:11:22.186Z,66.64
2023-02-09T09:13:24.340Z,66.45
2023-02-09T09:15:25.850Z,66.54
2023-02-09T09:17:27.536Z,66.56
2023-02-09T09:19:29.299Z,66.29
2023-02-09T09:21:31.546Z,65.57
2023-02-09T09:23:33.077Z,65.94
2023-02-09T09:25:34.848Z,65.46
2023-02-09T09:27:36.399Z,64.67
2023-02-09T09:29:40.088Z,64.64
2023-02-09T09:31:41.802Z,65.06
2023-02-09T09:33:44.274Z,65.04
2023-02-09T09:35:46.099Z,64.68
2023-02-09T09:37:48.531Z,63.25
2023-02-09T09:39:50.696Z,63.67
2023-02-09T09:41:58.031Z,63.29
2023-02-09T09:44:01.466Z,63.11
2023-02-09T09:46:05.829Z,63.00
2023-02-09T09:48:26.961Z,63.39
2023-02-09T09:50:37.148Z,62.96
2023-02-09T09:52:42.474Z,63.16
2023-02-09T09:54:44.899Z,62.82
2023-02-09T09:56:47.250Z,63.15
2023-02-09T09:58:49.773Z,62.67
2023-02-09T10:00:51.746Z,61.84
2023-02-09T10:02:53.863Z,62.28
2023-02-09T10:05:02.480Z,61.68
2023-02-09T10:07:16.378Z,62.51
2023-02-09T10:09:24.071Z,62.20
2023-02-09T10:11:32.558Z,62.16
2023-02-09T10:13:37.349Z,60.69
2023-02-09T10:15:38.946Z,60.97
2023-02-09T10:17:40.408Z,60.95
2023-02-09T10:19:41.916Z,61.45
2023-02-09T10:21:43.411Z,60.71
2023-02-09T10:23:50.423Z,60.55
2023-02-09T10:26:00.665Z,60.37
2023-02-09T10:28:06.355Z,60.66
2023-02-09T10:30:28.297Z,60.48
2023-02-09T10:32:39.964Z,59.78
2023-02-09T10:34:45.767Z,59.77
2023-02-09T10:37:13.620Z,59.96
2023-02-09T10:39:18.466Z,60.28
2023-02-09T10:41:21.469Z,59.82
2023-02-09T10:43:30.011Z,59.85
2023-02-09T10:45:44.587Z,59.92
2023-02-09T10:47:58.444Z,59.67
2023-02-09T10:50:01.834Z,59.10
2023-02-09T10:52:07.642Z,58.89
2023-02-09T10:54:20.733Z,59.57
2023-02-09T10:56:44.137Z,59.29
2023-02-09T10:58:59.017Z,59.20
2023-02-09T11:01:14.179Z,58.95
2023-02-09T11:03:19.214Z,59.02
2023-02-09T11:05:20.622Z,58.55
2023-02-09T11:07:28.048Z,58.57
2023-02-09T11:09:33.813Z,58.49
2023-02-09T11:11:41.298Z,58.32
2023-02-09T11:13:42.784Z,58.27
2023-02-09T11:15:58.725Z,57.88
2023-02-09T11:18:33.754Z,57.73
2023-02-09T11:20:44.109Z,56.76
2023-02-09T11:22:51.483Z,56.93
2023-02-09T11:25:15.978Z,56.59
2023-02-09T11:27:21.470Z,55.33
2023-02-09T11:29:37.832Z,55.75
2023-02-09T11:31:54.537Z,55.18
2023-02-09T11:34:04.098Z,54.22
2023-02-09T11:36:19.881Z,54.28
2023-02-09T11:38:45.657Z,54.57
2023-02-09T11:40:57.605Z,53.68
2023-02-09T11:43:11.015Z,54.05
2023-02-09T11:45:37.322Z,54.45
2023-02-09T11:47:59.430Z,54.29
2023-02-09T11:50:07.943Z,53.16
2023-02-09T11:52:16.441Z,52.72
2023-02-09T11:54:22.843Z,53.14
2023-02-09T11:56:26.161Z,53.31
2023-02-09T11:58:34.222Z,53.38
2023-02-09T12:00:54.841Z,52.76
2023-02-09T12:03:08.758Z,53.68
2023-02-09T12:05:13.781Z,52.59
2023-02-09T12:07:28.627Z,54.08
2023-02-09T12:09:45.624Z,53.65
2023-02-09T12:12:00.974Z,54.28
2023-02-09T12:14:33.529Z,54.74
2023-02-09T12:16:40.867Z,54.39
2023-02-09T12:18:44.847Z,54.65
2023-02-09T12:20:56.165Z,53.89
2023-02-09T12:23:04.436Z,53.18
2023-02-09T12:25:11.946Z,53.75
2023-02-09T12:27:26.002Z,53.52
2023-02-09T12:29:42.412Z,53.71
2023-02-09T12:32:08.911Z,54.18
2023-02-09T12:34:14.446Z,55.71
2023-02-09T12:36:16.092Z,55.86
2023-02-09T12:38:20.042Z,55.04
2023-02-09T12:40:22.706Z,55.41
2023-02-09T12:42:27.741Z,55.57
2023-02-09T12:44:29.181Z,55.78
2023-02-09T12:46:31.078Z,56.36
2023-02-09T12:48:32.611Z,56.00
2023-02-09T12:50:43.329Z,57.53
2023-02-09T12:53:22.703Z,57.69
2023-02-09T12:55:24.298Z,57.71
2023-02-09T12:57:26.117Z,57.09
2023-02-09T12:59:27.627Z,57.91
2023-02-09T13:02:15.824Z,58.09
2023-02-09T13:04:17.507Z,56.69
2023-02-09T13:06:29.779Z,57.65
2023-02-09T13:08:38.763Z,58.00
2023-02-09T13:11:02.052Z,57.87
2023-02-09T13:13:12.499Z,57.88
2023-02-09T13:15:16.860Z,58.02
2023-02-09T13:17:37.152Z,58.51
2023-02-09T13:19:52.834Z,57.94
2023-02-09T13:22:04.628Z,57.51
2023-02-09T13:24:13.114Z,58.29
2023-02-09T13:26:19.019Z,57.85
2023-02-09T13:28:22.716Z,58.50
2023-02-09T13:30:26.638Z,58.12
2023-02-09T13:33:02.740Z,58.23
2023-02-09T13:35:16.630Z,58.76
2023-02-09T13:37:34.246Z,58.16
2023-02-09T13:39:38.464Z,58.75
2023-02-09T13:41:43.064Z,58.33
2023-02-09T13:43:46.790Z,59.23
2023-02-09T13:45:49.732Z,59.09
2023-02-09T13:47:51.567Z,59.38
2023-02-09T13:49:59.973Z,59.34
2023-02-09T13:52:09.332Z,59.68
2023-02-09T13:54:21.080Z,59.57
2023-02-09T13:56:23.272Z,59.05
2023-02-09T13:58:28.933Z,58.66
2023-02-09T14:00:35.948Z,59.95
2023-02-09T14:02:38.030Z,59.69
2023-02-09T14:04:40.146Z,59.99
2023-02-09T14:06:50.536Z,59.66
2023-02-09T14:08:53.913Z,59.81
2023-02-09T14:11:04.546Z,60.47
2023-02-09T14:13:24.342Z,59.54
2023-02-09T14:15:51.959Z,60.02
2023-02-09T14:17:56.161Z,60.05
2023-02-09T14:19:59.661Z,59.25
2023-02-09T14:22:01.206Z,59.28
2023-02-09T14:24:30.366Z,59.88
2023-02-09T14:26:42.177Z,59.32
2023-02-09T14:28:49.084Z,59.33
2023-02-09T14:30:50.671Z,59.45
2023-02-09T14:32:55.351Z,59.24
2023-02-09T14:34:56.871Z,59.71
2023-02-09T14:37:21.311Z,59.45
2023-02-09T14:39:23.301Z,60.08
2023-02-09T14:41:34.512Z,60.74
2023-02-09T14:43:36.096Z,60.73
2023-02-09T14:45:57.258Z,60.79
2023-02-09T14:47:58.739Z,60.41
2023-02-09T14:50:00.736Z,60.15
2023-02-09T14:52:06.336Z,60.45
2023-02-09T14:54:21.946Z,61.16
2023-02-09T14:56:35.075Z,61.35
2023-02-09T14:58:36.554Z,60.94
2023-02-09T15:00:38.017Z,61.84
2023-02-09T15:02:39.488Z,62.35
2023-02-09T15:04:41.928Z,62.37
2023-02-09T15:06:46.751Z,62.55
2023-02-09T15:08:48.226Z,61.99
2023-02-09T15:11:37.158Z,62.45
2023-02-09T15:13:41.246Z,62.91
2023-02-09T15:15:43.468Z,62.94
2023-02-09T15:17:45.293Z,62.51
2023-02-09T15:19:47.523Z,63.27
2023-02-09T15:22:05.184Z,62.65
2023-02-09T15:24:07.888Z,63.19
2023-02-09T15:26:16.406Z,63.45
2023-02-09T15:28:30.096Z,63.20
2023-02-09T15:30:35.192Z,63.07
2023-02-09T15:32:36.654Z,63.47
2023-02-09T15:34:38.082Z,63.70
2023-02-09T15:36:39.606Z,63.75
2023-02-09T15:38:41.107Z,64.15
2023-02-09T15:41:03.347Z,64.29
2023-02-09T15:43:33.407Z,64.11
2023-02-09T15:45:50.146Z,64.26
2023-02-09T15:47:56.801Z,63.74
2023-02-09T15:49:58.262Z,64.30
2023-02-09T15:51:59.767Z,64.59
2023-02-09T15:54:05.328Z,63.95
2023-02-09T15:56:08.188Z,64.56
2023-02-09T15:58:15.109Z,64.57
2023-02-09T16:00:18.676Z,64.36
2023-02-09T16:02:20.204Z,64.86
2023-02-09T16:04:21.713Z,64.94
2023-02-09T16:06:27.111Z,65.24
2023-02-09T16:08:33.235Z,64.81
2023-02-09T16:10:34.710Z,65.01
2023-02-09T16:12:36.161Z,65.24
2023-02-09T16:14:37.925Z,65.08
2023-02-09T16:16:39.563Z,65.05
2023-02-09T16:18:41.148Z,65.00
2023-02-09T16:20:47.141Z,64.99
2023-02-09T16:22:51.088Z,65.38
2023-02-09T16:24:52.567Z,65.11
2023-02-09T16:26:54.453Z,64.94
2023-02-09T16:28:56.973Z,65.37
2023-02-09T16:30:58.567Z,65.84
2023-02-09T16:33:00.723Z,64.94
2023-02-09T16:35:15.818Z,65.10
2023-02-09T16:37:26.678Z,65.32
2023-02-09T16:39:28.237Z,65.25
2023-02-09T16:41:47.706Z,65.39
2023-02-09T16:43:49.174Z,65.70
2023-02-09T16:46:02.755Z,65.59
2023-02-09T16:48:05.081Z,66.36
2023-02-09T16:50:23.958Z,65.61
2023-02-09T16:52:26.501Z,65.62
2023-02-09T16:54:33.025Z,65.02
2023-02-09T16:56:37.206Z,65.06
2023-02-09T16:58:43.767Z,65.32
2023-02-09T17:00:45.762Z,65.68
2023-02-09T17:02:53.529Z,65.74
2023-02-09T17:04:55.253Z,65.52
2023-02-09T17:06:56.767Z,65.55
2023-02-09T17:08:58.747Z,65.64
2023-02-09T17:11:02.804Z,65.44
2023-02-09T17:13:07.210Z,65.77
2023-02-09T17:15:27.545Z,65.86
2023-02-09T17:17:30.717Z,65.86
2023-02-09T17:19:46.909Z,66.07
2023-02-09T17:21:49.355Z,66.53
2023-02-09T17:23:52.301Z,66.27
2023-02-09T17:25:57.081Z,66.03
2023-02-09T17:27:58.626Z,66.16
2023-02-09T17:30:00.133Z,66.16
2023-02-09T17:32:02.556Z,66.37
2023-02-09T17:34:07.532Z,65.88
2023-02-09T17:36:25.584Z,65.96
2023-02-09T17:38:29.793Z,66.10
2023-02-09T17:40:31.501Z,66.06
2023-02-09T17:42:36.857Z,66.01
2023-02-09T17:44:46.059Z,66.47
2023-02-09T17:46:48.954Z,66.63
2023-02-09T17:48:50.446Z,67.07
2023-02-09T17:50:53.006Z,67.14
2023-02-09T17:52:54.821Z,66.77
2023-02-09T17:54:56.299Z,67.02
2023-02-09T17:56:57.817Z,68.09
2023-02-09T17:59:02.990Z,68.85
2023-02-09T18:01:28.010Z,69.17
2023-02-09T18:03:29.581Z,69.80
2023-02-09T18:05:33.717Z,69.33
2023-02-09T18:07:35.175Z,69.09
2023-02-09T18:09:36.729Z,69.57
2023-02-09T18:11:44.288Z,69.82
2023-02-09T18:13:45.783Z,70.13
2023-02-09T18:15:48.788Z,70.40
2023-02-09T18:17:51.674Z,70.14
2023-02-09T18:19:53.203Z,69.76
2023-02-09T18:21:57.300Z,69.29
2023-02-09T18:23:58.782Z,69.42
2023-02-09T18:26:00.268Z,69.24
2023-02-09T18:28:02.992Z,69.49
2023-02-09T18:30:04.922Z,69.95
2023-02-09T18:32:06.913Z,70.15
2023-02-09T18:34:09.950Z,69.98
2023-02-09T18:36:14.574Z,70.14
2023-02-09T18:38:16.093Z,70.21
2023-02-09T18:40:18.715Z,70.35
2023-02-09T18:42:20.209Z,70.46
2023-02-09T18:44:28.445Z,70.87
2023-02-09T18:46:29.949Z,70.73
2023-02-09T18:48:31.502Z,71.04
2023-02-09T18:50:33.192Z,71.45
2023-02-09T18:52:34.778Z,71.44
2023-02-09T18:54:36.338Z,71.09
2023-02-09T18:56:38.047Z,71.74
2023-02-09T18:58:39.701Z,72.18
2023-02-09T19:00:41.155Z,72.05
2023-02-09T19:02:44.181Z,72.06
2023-02-09T19:04:45.722Z,72.38
2023-02-09T19:06:47.417Z,72.55
2023-02-09T19:08:50.373Z,72.68
2023-02-09T19:10:51.950Z,72.77
2023-02-09T19:12:54.321Z,73.32
2023-02-09T19:14:55.867Z,73.38
2023-02-09T19:16:57.353Z,73.67
2023-02-09T19:18:59.149Z,73.69
2023-02-09T19:21:07.233Z,74.11
2023-02-09T19:23:09.243Z,74.38
2023-02-09T19:25:10.760Z,74.42
2023-02-09T19:27:12.381Z,74.73
2023-02-09T19:29:14.091Z,74.87
2023-02-09T19:31:17.644Z,74.94
2023-02-09T19:33:19.121Z,74.79
2023-02-09T19:35:22.557Z,75.12
2023-02-09T19:37:24.112Z,75.58
2023-02-09T19:39:25.808Z,75.61
2023-02-09T19:41:27.385Z,75.73
2023-02-09T19:43:29.020Z,75.84
2023-02-09T19:45:36.201Z,76.21
2023-02-09T19:47:38.134Z,76.09
2023-02-09T19:49:39.656Z,76.53
2023-02-09T19:51:41.117Z,76.81
2023-02-09T19:53:42.646Z,76.85
2023-02-09T19:55:48.677Z,77.07
2023-02-09T19:57:50.391Z,77.27
2023-02-09T19:59:53.273Z,77.16
2023-02-09T20:01:54.844Z,77.33
2023-02-09T20:03:56.384Z,77.58
2023-02-09T20:05:58.051Z,77.83
2023-02-09T20:07:59.763Z,78.08
2023-02-09T20:10:01.254Z,77.96
2023-02-09T20:12:03.388Z,78.36
2023-02-09T20:14:05.551Z,78.86
2023-02-09T20:16:09.526Z,79.52
2023-02-09T20:18:12.678Z,79.72
2023-02-09T20:20:16.640Z,80.33
2023-02-09T20:22:18.157Z,80.80
2023-02-09T20:24:19.625Z,81.60
2023-02-09T20:26:29.379Z,82.07
2023-02-09T20:28:30.992Z,82.25
2023-02-09T20:30:32.555Z,82.68
2023-02-09T20:32:36.543Z,83.22
2023-02-09T20:34:38.343Z,83.60
2023-02-09T20:36:41.716Z,83.90
2023-02-09T20:38:43.299Z,84.33
2023-02-09T20:40:45.216Z,84.92
2023-02-09T20:43:05.415Z,85.38
2023-02-09T20:45:26.144Z,85.88
2023-02-09T20:47:29.735Z,86.68
2023-02-09T20:49:34.309Z,87.28
2023-02-09T20:51:35.786Z,87.79
2023-02-09T20:53:37.273Z,88.24
2023-02-09T20:55:38.768Z,88.34
2023-02-09T20:57:40.424Z,88.97
2023-02-09T20:59:41.898Z,89.49
2023-02-09T21:01:43.668Z,89.75
2023-02-09T21:03:45.170Z,90.19
2023-02-09T21:05:46.698Z,90.27
2023-02-09T21:07:50.344Z,90.29
2023-02-09T21:09:54.092Z,90.97
2023-02-09T21:11:56.181Z,91.01
2023-02-09T21:13:57.662Z,91.08
2023-02-09T21:15:59.129Z,91.61
2023-02-09T21:18:00.632Z,91.88
2023-02-09T21:20:02.778Z,91.69
2023-02-09T21:22:04.483Z,91.98
2023-02-09T21:24:06.012Z,91.89
2023-02-09T21:26:11.126Z,92.04
2023-02-09T21:28:13.147Z,92.46
2023-02-09T21:30:15.943Z,92.38
2023-02-09T21:32:18.255Z,92.49
2023-02-09T21:34:19.724Z,92.73
2023-02-09T21:36:21.442Z,92.72
2023-02-09T21:38:22.955Z,92.47
2023-02-09T21:40:24.820Z,92.64
2023-02-09T21:42:26.270Z,92.83
2023-02-09T21:44:28.328Z,92.62
2023-02-09T21:46:29.901Z,92.89
2023-02-09T21:48:31.336Z,92.95
2023-02-09T21:50:33.283Z,92.99
2023-02-09T21:52:35.787Z,93.26
2023-02-09T21:54:37.355Z,93.38
2023-02-09T21:56:38.871Z,93.25
2023-02-09T21:58:40.701Z,93.25
2023-02-09T22:00:42.477Z,93.38
2023-02-09T22:02:44.883Z,93.52
2023-02-09T22:04:46.888Z,93.43
2023-02-09T22:06:48.531Z,93.97
2023-02-09T22:08:50.032Z,94.09
2023-02-09T22:10:51.816Z,94.68
2023-02-09T22:12:53.504Z,94.65
2023-02-09T22:14:54.969Z,94.61
2023-02-09T22:16:57.123Z,94.82
2023-02-09T22:18:59.214Z,94.49
2023-02-09T22:21:01.430Z,94.92
2023-02-09T22:23:02.905Z,94.99
2023-02-09T22:25:04.491Z,95.19
2023-02-09T22:27:06.038Z,95.13
2023-02-09T22:29:09.010Z,95.08
2023-02-09T22:31:17.042Z,95.12
2023-02-09T22:33:20.534Z,94.79
2023-02-09T22:35:22.046Z,94.82
2023-02-09T22:37:23.516Z,94.64
2023-02-09T22:39:25.036Z,94.92
2023-02-09T22:41:26.549Z,94.69
2023-02-09T22:43:28.084Z,94.89
2023-02-09T22:45:29.541Z,95.08
2023-02-09T22:47:32.208Z,95.43
2023-02-09T22:49:33.730Z,95.17
2023-02-09T22:51:36.072Z,95.14
2023-02-09T22:53:38.071Z,95.33
2023-02-09T22:55:39.577Z,95.44
2023-02-09T22:57:41.063Z,95.67
2023-02-09T22:59:42.821Z,95.66
2023-02-09T23:01:44.870Z,95.25
2023-02-09T23:03:46.393Z,95.45
2023-02-09T23:05:48.135Z,95.40
2023-02-09T23:07:49.780Z,95.46
2023-02-09T23:09:51.228Z,95.39
2023-02-09T23:11:53.190Z,95.37
2023-02-09T23:14:08.558Z,95.32
2023-02-09T23:16:24.826Z,95.47
2023-02-09T23:18:26.296Z,95.57
2023-02-09T23:20:27.772Z,95.54
2023-02-09T23:22:29.236Z,95.34
2023-02-09T23:24:30.697Z,95.60
2023-02-09T23:26:32.792Z,95.85
2023-02-09T23:28:34.807Z,95.82
2023-02-09T23:30:36.397Z,95.95
2023-02-09T23:32:37.856Z,95.91
2023-02-09T23:34:39.326Z,95.91
2023-02-09T23:36:41.285Z,96.10
2023-02-09T23:38:44.192Z,96.35
2023-02-09T23:40:45.830Z,96.42
2023-02-09T23:42:47.275Z,96.63
2023-02-09T23:44:48.720Z,96.25
2023-02-09T23:46:50.258Z,96.80
2023-02-09T23:48:54.921Z,96.40
2023-02-09T23:51:04.299Z,96.75
2023-02-09T23:53:08.308Z,96.90
2023-02-09T23:55:09.831Z,96.83
2023-02-09T23:57:11.378Z,96.99
2023-02-09T23:59:15.493Z,96.87
